createdAt,value
2022-12-03T00:00:33.196Z,102042.66
2022-12-03T00:03:19.373Z,102035.13
2022-12-03T00:05:49.098Z,102028.34
2022-12-03T00:08:15.958Z,102037.16
2022-12-03T00:10:42.568Z,102030.94
2022-12-03T00:13:09.420Z,102023.25
2022-12-03T00:15:36.012Z,102041.19
2022-12-03T00:18:02.246Z,102030.16
2022-12-03T00:20:28.783Z,102031.88
2022-12-03T00:22:54.918Z,102030.50
2022-12-03T00:25:21.420Z,102030.59
2022-12-03T00:27:47.627Z,102037.34
2022-12-03T00:30:15.396Z,102030.13
2022-12-03T00:32:41.817Z,102037.34
2022-12-03T00:35:09.054Z,102034.50
2022-12-03T00:37:35.520Z,102032.09
2022-12-03T00:40:03.958Z,102034.31
2022-12-03T00:42:30.104Z,102029.34
2022-12-03T00:44:56.584Z,102027.28
2022-12-03T00:47:22.742Z,102026.25
2022-12-03T00:49:49.256Z,102021.09
2022-12-03T00:52:15.318Z,102016.63
2022-12-03T00:54:41.711Z,102026.59
2022-12-03T00:57:07.799Z,102019.47
2022-12-03T00:59:34.255Z,102015.94
2022-12-03T01:02:00.481Z,102020.34
2022-12-03T01:04:27.154Z,102021.34
2022-12-03T01:06:53.364Z,102030.03
2022-12-03T01:09:19.890Z,102031.09
2022-12-03T01:11:45.988Z,102036.56
2022-12-03T01:14:17.843Z,102030.19
2022-12-03T01:16:45.219Z,102026.28
2022-12-03T01:19:16.304Z,102023.38
2022-12-03T01:21:48.668Z,102020.31
2022-12-03T01:24:15.635Z,102027.56
2022-12-03T01:26:41.885Z,102017.13
2022-12-03T01:29:08.316Z,102019.75
2022-12-03T01:31:53.122Z,102021.56
2022-12-03T01:34:20.019Z,102028.34
2022-12-03T01:36:46.138Z,102028.97
2022-12-03T01:39:12.484Z,102021.44
2022-12-03T01:41:39.380Z,102018.91
2022-12-03T01:44:22.955Z,102022.88
2022-12-03T01:46:51.233Z,102025.63
2022-12-03T01:50:00.002Z,102024.00
2022-12-03T01:52:29.782Z,102013.88
2022-12-03T01:54:58.480Z,102011.03
2022-12-03T01:57:33.469Z,102011.13
2022-12-03T02:00:00.590Z,102008.47
2022-12-03T02:02:29.163Z,102003.66
2022-12-03T02:04:58.716Z,102005.53
2022-12-03T02:07:31.397Z,102004.44
2022-12-03T02:10:01.016Z,101999.44
2022-12-03T02:12:44.864Z,101992.75
2022-12-03T02:15:12.008Z,101990.44
2022-12-03T02:17:38.820Z,101994.97
2022-12-03T02:20:07.979Z,101986.91
2022-12-03T02:22:45.772Z,101984.88
2022-12-03T02:25:12.152Z,101993.44
2022-12-03T02:27:38.544Z,101990.88
2022-12-03T02:30:06.657Z,101988.50
2022-12-03T02:32:33.288Z,101981.38
2022-12-03T02:34:59.702Z,101977.53
2022-12-03T02:37:30.519Z,101985.66
2022-12-03T02:40:05.937Z,101994.16
2022-12-03T02:42:34.926Z,101994.38
2022-12-03T02:45:06.644Z,101995.16
2022-12-03T02:47:41.854Z,101984.72
2022-12-03T02:50:10.575Z,101985.66
2022-12-03T02:52:37.450Z,101998.72
2022-12-03T02:55:06.043Z,101994.06
2022-12-03T02:57:34.813Z,101999.22
2022-12-03T03:00:01.446Z,102002.94
2022-12-03T03:02:27.712Z,101999.34
2022-12-03T03:04:56.040Z,101991.50
2022-12-03T03:07:22.469Z,102000.34
2022-12-03T03:09:49.114Z,101998.31
2022-12-03T03:12:15.729Z,102000.38
2022-12-03T03:14:42.378Z,102003.13
2022-12-03T03:17:08.540Z,101994.38
2022-12-03T03:19:34.974Z,102002.84
2022-12-03T03:22:01.078Z,101996.38
2022-12-03T03:24:27.709Z,101989.03
2022-12-03T03:26:53.992Z,101982.69
2022-12-03T03:29:20.976Z,101989.44
2022-12-03T03:31:47.645Z,101987.63
2022-12-03T03:34:14.972Z,101990.63
2022-12-03T03:36:41.571Z,101980.41
2022-12-03T03:39:07.915Z,101991.50
2022-12-03T03:41:34.923Z,101986.28
2022-12-03T03:44:04.352Z,101983.28
2022-12-03T03:46:32.627Z,101979.31
2022-12-03T03:48:59.411Z,101986.41
2022-12-03T03:51:25.594Z,101984.81
2022-12-03T03:53:52.364Z,101978.06
2022-12-03T03:56:20.548Z,101972.19
2022-12-03T03:58:47.318Z,101970.63
2022-12-03T04:01:14.125Z,101971.38
2022-12-03T04:03:40.947Z,101973.19
2022-12-03T04:06:07.926Z,101969.56
2022-12-03T04:08:34.553Z,101972.84
2022-12-03T04:11:19.246Z,101971.97
2022-12-03T04:13:45.971Z,101974.91
2022-12-03T04:16:12.265Z,101970.50
2022-12-03T04:18:44.618Z,101971.25
2022-12-03T04:21:41.179Z,101965.16
2022-12-03T04:24:09.917Z,101966.56
2022-12-03T04:26:55.129Z,101962.22
2022-12-03T04:29:22.078Z,101958.25
2022-12-03T04:32:07.095Z,101955.66
2022-12-03T04:34:52.734Z,101954.53
2022-12-03T04:37:19.377Z,101960.09
2022-12-03T04:39:46.014Z,101955.78
2022-12-03T04:42:12.352Z,101949.03
2022-12-03T04:44:38.904Z,101956.06
2022-12-03T04:47:14.777Z,101957.53
2022-12-03T04:49:47.641Z,101946.53
2022-12-03T04:52:16.845Z,101960.09
2022-12-03T04:54:43.459Z,101961.34
2022-12-03T04:57:10.625Z,101956.72
2022-12-03T04:59:38.212Z,101959.97
2022-12-03T05:02:06.107Z,101952.22
2022-12-03T05:04:33.187Z,101944.56
2022-12-03T05:06:59.498Z,101943.38
2022-12-03T05:09:26.037Z,101944.56
2022-12-03T05:11:52.145Z,101947.31
2022-12-03T05:14:18.598Z,101941.72
2022-12-03T05:16:44.879Z,101936.06
2022-12-03T05:19:11.410Z,101928.53
2022-12-03T05:21:37.651Z,101927.09
2022-12-03T05:24:04.615Z,101922.00
2022-12-03T05:26:30.972Z,101932.56
2022-12-03T05:28:57.534Z,101933.13
2022-12-03T05:31:23.904Z,101921.28
2022-12-03T05:33:50.425Z,101923.38
2022-12-03T05:36:16.879Z,101929.00
2022-12-03T05:38:43.618Z,101930.16
2022-12-03T05:41:28.083Z,101925.47
2022-12-03T05:43:54.630Z,101931.28
2022-12-03T05:46:21.148Z,101922.03
2022-12-03T05:48:47.758Z,101923.50
2022-12-03T05:51:14.155Z,101920.25
2022-12-03T05:53:40.827Z,101927.41
2022-12-03T05:56:07.305Z,101917.44
2022-12-03T05:58:33.924Z,101924.47
2022-12-03T06:01:00.277Z,101918.53
2022-12-03T06:03:26.946Z,101925.41
2022-12-03T06:05:53.296Z,101921.31
2022-12-03T06:08:19.713Z,101917.72
2022-12-03T06:10:45.931Z,101918.41
2022-12-03T06:13:12.436Z,101917.63
2022-12-03T06:15:43.432Z,101906.44
2022-12-03T06:18:11.108Z,101915.13
2022-12-03T06:20:37.352Z,101915.72
2022-12-03T06:23:03.760Z,101917.03
2022-12-03T06:25:29.904Z,101913.28
2022-12-03T06:27:56.266Z,101922.22
2022-12-03T06:30:22.377Z,101923.31
2022-12-03T06:32:48.800Z,101916.63
2022-12-03T06:35:15.092Z,101910.44
2022-12-03T06:37:41.552Z,101923.09
2022-12-03T06:40:08.240Z,101919.34
2022-12-03T06:42:34.766Z,101911.72
2022-12-03T06:45:01.308Z,101917.16
2022-12-03T06:47:29.694Z,101921.53
2022-12-03T06:49:55.888Z,101917.00
2022-12-03T06:52:22.482Z,101921.16
2022-12-03T06:54:48.662Z,101918.81
2022-12-03T06:57:15.505Z,101932.31
2022-12-03T06:59:41.896Z,101927.75
2022-12-03T07:02:10.489Z,101920.78
2022-12-03T07:04:36.784Z,101921.03
2022-12-03T07:07:03.399Z,101916.50
2022-12-03T07:09:29.603Z,101914.75
2022-12-03T07:11:57.032Z,101921.25
2022-12-03T07:14:23.362Z,101914.78
2022-12-03T07:16:50.014Z,101913.19
2022-12-03T07:19:16.194Z,101910.66
2022-12-03T07:21:42.783Z,101911.63
2022-12-03T07:24:09.139Z,101911.91
2022-12-03T07:26:35.897Z,101914.91
2022-12-03T07:29:02.321Z,101912.25
2022-12-03T07:31:29.075Z,101905.69
2022-12-03T07:33:55.284Z,101905.34
2022-12-03T07:36:22.341Z,101917.34
2022-12-03T07:38:48.696Z,101910.44
2022-12-03T07:41:15.538Z,101914.91
2022-12-03T07:43:41.928Z,101908.88
2022-12-03T07:46:08.471Z,101911.72
2022-12-03T07:48:35.119Z,101914.38
2022-12-03T07:51:01.709Z,101904.84
2022-12-03T07:53:28.003Z,101905.03
2022-12-03T07:55:54.707Z,101903.41
2022-12-03T07:58:21.004Z,101909.66
2022-12-03T08:00:47.830Z,101904.00
2022-12-03T08:03:14.583Z,101910.28
2022-12-03T08:05:41.075Z,101899.91
2022-12-03T08:08:07.557Z,101904.75
2022-12-03T08:10:34.113Z,101903.78
2022-12-03T08:13:01.977Z,101903.88
2022-12-03T08:15:35.184Z,101896.38
2022-12-03T08:18:12.377Z,101903.97
2022-12-03T08:20:41.584Z,101910.63
2022-12-03T08:23:17.014Z,101910.03
2022-12-03T08:25:44.748Z,101910.53
2022-12-03T08:28:14.677Z,101904.53
2022-12-03T08:30:42.983Z,101911.47
2022-12-03T08:33:36.233Z,101912.28
2022-12-03T08:36:26.306Z,101909.03
2022-12-03T08:38:58.449Z,101910.34
2022-12-03T08:41:47.956Z,101905.03
2022-12-03T08:44:37.947Z,101912.50
2022-12-03T08:47:13.550Z,101905.00
2022-12-03T08:50:29.790Z,101904.06
2022-12-03T08:53:13.526Z,101900.44
2022-12-03T08:59:29.705Z,101904.06
2022-12-03T09:01:58.465Z,101895.03
2022-12-03T09:04:46.521Z,101897.16
2022-12-03T09:07:12.935Z,101897.19
2022-12-03T09:09:39.842Z,101893.56
2022-12-03T09:12:06.188Z,101892.88
2022-12-03T09:14:32.895Z,101887.69
2022-12-03T09:16:59.287Z,101879.53
2022-12-03T09:19:27.064Z,101878.81
2022-12-03T09:21:54.091Z,101884.44
2022-12-03T09:24:21.059Z,101887.91
2022-12-03T09:26:47.504Z,101880.09
2022-12-03T09:29:14.755Z,101879.53
2022-12-03T09:31:43.371Z,101876.94
2022-12-03T09:34:10.516Z,101874.59
2022-12-03T09:36:36.881Z,101871.66
2022-12-03T09:39:03.622Z,101865.06
2022-12-03T09:41:30.117Z,101869.13
2022-12-03T09:44:05.134Z,101866.09
2022-12-03T09:46:37.218Z,101860.22
2022-12-03T09:49:10.816Z,101860.59
2022-12-03T09:51:40.789Z,101861.38
2022-12-03T09:54:09.370Z,101851.41
2022-12-03T09:56:37.570Z,101857.84
2022-12-03T09:59:14.372Z,101854.56
2022-12-03T10:01:40.662Z,101847.94
2022-12-03T10:04:07.796Z,101847.25
2022-12-03T10:06:34.036Z,101846.19
2022-12-03T10:09:00.595Z,101858.50
2022-12-03T10:11:29.224Z,101853.56
2022-12-03T10:13:58.709Z,101851.16
2022-12-03T10:16:26.410Z,101854.72
2022-12-03T10:18:56.048Z,101845.09
2022-12-03T10:21:40.624Z,101846.91
2022-12-03T10:24:21.159Z,101840.63
2022-12-03T10:29:47.270Z,101843.22
2022-12-03T10:32:14.096Z,101831.72
2022-12-03T10:37:26.257Z,101835.41
2022-12-03T10:39:56.028Z,101839.69
2022-12-03T10:42:24.436Z,101830.84
2022-12-03T10:45:06.718Z,101826.13
2022-12-03T10:47:33.394Z,101819.78
2022-12-03T10:50:06.036Z,101830.84
2022-12-03T10:52:32.557Z,101829.63
2022-12-03T10:54:59.210Z,101828.59
2022-12-03T10:57:26.071Z,101826.13
2022-12-03T10:59:53.020Z,101822.28
2022-12-03T11:02:23.141Z,101824.03
2022-12-03T11:04:56.273Z,101820.00
2022-12-03T11:08:03.286Z,101816.16
2022-12-03T11:10:33.091Z,101810.38
2022-12-03T11:13:47.648Z,101812.03
2022-12-03T11:16:41.085Z,101812.75
2022-12-03T11:19:37.074Z,101807.63
2022-12-03T11:22:13.797Z,101810.00
2022-12-03T11:24:40.455Z,101808.72
2022-12-03T11:27:17.303Z,101808.56
2022-12-03T11:29:55.379Z,101801.63
2022-12-03T11:32:43.904Z,101802.19
2022-12-03T11:35:22.450Z,101783.59
2022-12-03T11:41:34.199Z,101789.28
2022-12-03T11:44:34.159Z,101780.81
2022-12-03T11:47:12.138Z,101782.56
2022-12-03T11:49:47.499Z,101765.88
2022-12-03T11:52:48.464Z,101767.91
2022-12-03T11:55:25.167Z,101770.38
2022-12-03T11:58:05.353Z,101777.22
2022-12-03T12:01:05.991Z,101800.50
2022-12-03T12:03:40.711Z,101812.59
2022-12-03T12:08:59.303Z,101790.25
2022-12-03T12:11:43.230Z,101796.41
2022-12-03T12:14:11.821Z,101794.59
2022-12-03T12:16:51.849Z,101790.81
2022-12-03T12:22:41.420Z,101785.03
2022-12-03T12:25:29.320Z,101793.56
2022-12-03T12:28:14.638Z,101779.53
2022-12-03T12:30:43.931Z,101781.09
2022-12-03T12:36:33.633Z,101781.66
2022-12-03T12:39:00.289Z,101786.16
2022-12-03T12:41:26.672Z,101782.13
2022-12-03T12:43:53.479Z,101774.78
2022-12-03T12:46:49.085Z,101776.06
2022-12-03T12:49:11.500Z,101778.75
2022-12-03T12:51:49.669Z,101785.97
2022-12-03T12:54:20.288Z,101779.03
2022-12-03T12:56:49.597Z,101782.59
2022-12-03T12:59:21.427Z,101776.69
2022-12-03T13:01:49.597Z,101775.50
2022-12-03T13:04:20.096Z,101773.69
2022-12-03T13:06:56.394Z,101772.75
2022-12-03T13:09:25.101Z,101765.03
2022-12-03T13:11:54.714Z,101762.38
2022-12-03T13:17:34.530Z,101759.75
2022-12-03T13:20:07.660Z,101758.03
2022-12-03T13:22:40.383Z,101757.56
2022-12-03T13:28:42.229Z,101745.91
2022-12-03T13:31:24.460Z,101739.75
2022-12-03T13:33:52.878Z,101740.00
2022-12-03T13:36:21.945Z,101753.44
2022-12-03T13:38:49.025Z,101750.06
2022-12-03T13:42:06.867Z,101744.97
2022-12-03T13:44:39.768Z,101740.06
2022-12-03T13:47:38.393Z,101742.38
2022-12-03T13:50:17.917Z,101736.38
2022-12-03T13:52:56.612Z,101742.75
2022-12-03T13:55:31.073Z,101748.75
2022-12-03T13:57:58.445Z,101737.22
2022-12-03T14:00:24.902Z,101742.59
2022-12-03T14:02:52.012Z,101734.34
2022-12-03T14:05:20.836Z,101735.91
2022-12-03T14:08:25.661Z,101735.91
2022-12-03T14:10:58.579Z,101720.78
2022-12-03T14:13:31.864Z,101730.53
2022-12-03T14:16:02.124Z,101739.06
2022-12-03T14:18:30.173Z,101745.19
2022-12-03T14:21:00.604Z,101733.41
2022-12-03T14:23:28.699Z,101742.34
2022-12-03T14:26:03.782Z,101734.41
2022-12-03T14:28:30.566Z,101732.84
2022-12-03T14:30:56.972Z,101732.03
2022-12-03T14:33:23.671Z,101733.94
2022-12-03T14:35:55.702Z,101735.28
2022-12-03T14:38:26.610Z,101730.22
2022-12-03T14:40:53.131Z,101729.22
2022-12-03T14:43:34.722Z,101731.09
2022-12-03T14:46:15.007Z,101733.00
2022-12-03T14:48:44.158Z,101734.16
2022-12-03T14:51:10.669Z,101738.56
2022-12-03T14:53:37.417Z,101736.28
2022-12-03T14:56:03.823Z,101739.03
2022-12-03T14:58:36.489Z,101743.59
2022-12-03T15:01:02.808Z,101737.78
2022-12-03T15:03:30.612Z,101739.19
2022-12-03T15:05:59.946Z,101742.59
2022-12-03T15:08:27.942Z,101741.56
2022-12-03T15:11:03.375Z,101736.69
2022-12-03T15:13:52.728Z,101738.81
2022-12-03T15:16:19.287Z,101751.31
2022-12-03T15:18:46.094Z,101754.41
2022-12-03T15:21:13.476Z,101761.50
2022-12-03T15:23:40.481Z,101759.84
2022-12-03T15:26:06.895Z,101748.97
2022-12-03T15:28:33.647Z,101752.41
2022-12-03T15:31:00.338Z,101748.88
2022-12-03T15:33:27.345Z,101743.06
2022-12-03T15:35:55.268Z,101740.22
2022-12-03T15:41:26.727Z,101741.56
2022-12-03T15:43:54.589Z,101742.50
2022-12-03T15:46:21.380Z,101736.22
2022-12-03T15:49:11.640Z,101737.66
2022-12-03T15:54:54.781Z,101741.13
2022-12-03T16:00:11.988Z,101738.59
2022-12-03T16:02:52.685Z,101743.41
2022-12-03T16:05:20.083Z,101755.25
2022-12-03T16:07:46.455Z,101748.00
2022-12-03T16:10:16.876Z,101741.22
2022-12-03T16:12:50.927Z,101751.63
2022-12-03T16:15:19.927Z,101747.56
2022-12-03T16:17:50.941Z,101743.09
2022-12-03T16:20:25.304Z,101728.69
2022-12-03T16:25:53.014Z,101737.25
2022-12-03T16:28:21.997Z,101737.09
2022-12-03T16:30:54.868Z,101740.50
2022-12-03T16:33:27.091Z,101740.91
2022-12-03T16:35:54.442Z,101733.00
2022-12-03T16:38:22.979Z,101741.50
2022-12-03T16:40:50.006Z,101732.53
2022-12-03T16:43:34.614Z,101742.91
2022-12-03T16:46:02.420Z,101744.72
2022-12-03T16:48:29.651Z,101742.41
2022-12-03T16:50:59.369Z,101741.22
2022-12-03T16:53:43.229Z,101746.44
2022-12-03T16:56:09.934Z,101726.97
2022-12-03T16:58:36.374Z,101735.66
2022-12-03T17:01:03.425Z,101725.75
2022-12-03T17:03:33.801Z,101735.91
2022-12-03T17:06:01.912Z,101741.72
2022-12-03T17:08:28.831Z,101741.59
2022-12-03T17:10:55.667Z,101738.91
2022-12-03T17:13:23.233Z,101728.97
2022-12-03T17:15:50.683Z,101740.34
2022-12-03T17:18:17.186Z,101734.47
2022-12-03T17:20:45.565Z,101733.28
2022-12-03T17:23:12.087Z,101720.22
2022-12-03T17:25:38.614Z,101723.97
2022-12-03T17:28:05.298Z,101730.22
2022-12-03T17:30:32.114Z,101718.25
2022-12-03T17:32:58.523Z,101724.34
2022-12-03T17:35:26.021Z,101726.81
2022-12-03T17:37:52.241Z,101723.34
2022-12-03T17:40:18.847Z,101726.19
2022-12-03T17:42:45.276Z,101714.75
2022-12-03T17:45:12.549Z,101721.19
2022-12-03T17:47:39.195Z,101719.44
2022-12-03T17:50:06.732Z,101720.75
2022-12-03T17:52:33.088Z,101730.78
2022-12-03T17:55:11.731Z,101722.34
2022-12-03T17:57:40.831Z,101721.31
2022-12-03T18:00:08.286Z,101718.38
2022-12-03T18:02:41.510Z,101724.59
2022-12-03T18:05:08.831Z,101730.28
2022-12-03T18:07:35.075Z,101716.84
2022-12-03T18:10:29.827Z,101723.91
2022-12-03T18:13:01.454Z,101714.81
2022-12-03T18:19:47.796Z,101704.44
2022-12-03T18:22:15.067Z,101713.88
2022-12-03T18:24:41.424Z,101721.47
2022-12-03T18:27:08.377Z,101721.06
2022-12-03T18:29:34.730Z,101718.34
2022-12-03T18:32:01.325Z,101710.31
2022-12-03T18:34:27.591Z,101702.25
2022-12-03T18:36:54.229Z,101714.53
2022-12-03T18:39:26.752Z,101707.50
2022-12-03T18:41:53.543Z,101701.59
2022-12-03T18:44:20.589Z,101709.63
2022-12-03T18:46:54.886Z,101711.09
2022-12-03T18:49:22.141Z,101700.69
2022-12-03T18:51:56.034Z,101697.88
2022-12-03T18:54:24.466Z,101700.38
2022-12-03T18:56:50.948Z,101702.09
2022-12-03T18:59:17.195Z,101711.25
2022-12-03T19:01:44.319Z,101705.72
2022-12-03T19:04:10.646Z,101695.66
2022-12-03T19:06:37.310Z,101706.16
2022-12-03T19:09:04.237Z,101705.22
2022-12-03T19:11:30.710Z,101711.00
2022-12-03T19:13:58.334Z,101703.66
2022-12-03T19:16:25.596Z,101704.97
2022-12-03T19:18:53.187Z,101702.91
2022-12-03T19:21:20.604Z,101704.56
2022-12-03T19:24:16.465Z,101700.97
2022-12-03T19:26:34.125Z,101699.78
2022-12-03T19:29:00.452Z,101705.16
2022-12-03T19:31:28.336Z,101694.59
2022-12-03T19:33:54.565Z,101704.19
2022-12-03T19:36:26.965Z,101703.25
2022-12-03T19:38:57.362Z,101708.16
2022-12-03T19:41:26.670Z,101708.56
2022-12-03T19:43:55.064Z,101701.94
2022-12-03T19:46:26.304Z,101709.75
2022-12-03T19:48:55.773Z,101698.78
2022-12-03T19:51:38.019Z,101701.69
2022-12-03T19:54:06.266Z,101713.06
2022-12-03T19:56:33.808Z,101699.72
2022-12-03T19:59:00.126Z,101696.16
2022-12-03T20:01:30.307Z,101702.16
2022-12-03T20:03:58.522Z,101711.69
2022-12-03T20:06:29.690Z,101701.03
2022-12-03T20:09:04.824Z,101710.22
2022-12-03T20:11:33.080Z,101709.84
2022-12-03T20:14:02.673Z,101708.59
2022-12-03T20:16:29.391Z,101698.00
2022-12-03T20:18:58.708Z,101702.34
2022-12-03T20:21:26.083Z,101705.78
2022-12-03T20:23:54.137Z,101705.41
2022-12-03T20:26:21.924Z,101699.88
2022-12-03T20:28:48.736Z,101698.91
2022-12-03T20:31:18.785Z,101696.19
2022-12-03T20:33:47.758Z,101688.31
2022-12-03T20:36:16.305Z,101698.25
2022-12-03T20:38:42.728Z,101702.31
2022-12-03T20:41:11.668Z,101698.19
2022-12-03T20:43:38.433Z,101696.00
2022-12-03T20:46:14.359Z,101697.56
2022-12-03T20:48:41.681Z,101703.41
2022-12-03T20:51:12.844Z,101704.78
2022-12-03T20:53:39.498Z,101695.72
2022-12-03T20:56:07.576Z,101697.50
2022-12-03T20:58:34.426Z,101688.69
2022-12-03T21:01:15.881Z,101691.06
2022-12-03T21:03:44.105Z,101690.59
2022-12-03T21:06:11.752Z,101691.91
2022-12-03T21:08:41.961Z,101686.38
2022-12-03T21:11:10.757Z,101682.16
2022-12-03T21:13:40.596Z,101691.25
2022-12-03T21:16:10.160Z,101686.34
2022-12-03T21:18:36.845Z,101691.13
2022-12-03T21:21:03.604Z,101697.47
2022-12-03T21:23:31.215Z,101689.06
2022-12-03T21:26:09.347Z,101683.50
2022-12-03T21:32:54.521Z,101675.47
2022-12-03T21:35:21.141Z,101679.28
2022-12-03T21:37:48.297Z,101680.31
2022-12-03T21:40:15.161Z,101676.84
2022-12-03T21:47:14.566Z,101675.56
2022-12-03T21:50:38.020Z,101677.03
2022-12-03T21:54:37.833Z,101665.59
2022-12-03T21:57:40.923Z,101673.50
2022-12-03T22:00:08.298Z,101672.88
2022-12-03T22:02:39.396Z,101674.09
2022-12-03T22:05:09.633Z,101680.50
2022-12-03T22:07:38.839Z,101675.47
2022-12-03T22:10:08.328Z,101676.56
2022-12-03T22:12:34.460Z,101667.25
2022-12-03T22:15:00.817Z,101667.16
2022-12-03T22:17:27.193Z,101659.03
2022-12-03T22:19:54.549Z,101662.69
2022-12-03T22:22:21.024Z,101659.13
2022-12-03T22:24:47.656Z,101651.78
2022-12-03T22:27:13.993Z,101653.66
2022-12-03T22:29:40.528Z,101646.69
2022-12-03T22:32:06.676Z,101642.53
2022-12-03T22:34:33.531Z,101640.50
2022-12-03T22:36:59.674Z,101642.50
2022-12-03T22:39:28.378Z,101641.91
2022-12-03T22:41:54.494Z,101636.72
2022-12-03T22:44:20.979Z,101639.59
2022-12-03T22:46:47.107Z,101648.41
2022-12-03T22:49:13.558Z,101658.28
2022-12-03T22:51:39.912Z,101649.94
2022-12-03T22:54:06.263Z,101641.22
2022-12-03T22:56:32.369Z,101643.06
2022-12-03T22:58:59.212Z,101651.16
2022-12-03T23:01:31.107Z,101644.69
2022-12-03T23:03:58.528Z,101647.38
2022-12-03T23:06:27.325Z,101641.06
2022-12-03T23:08:54.972Z,101633.13
2022-12-03T23:11:21.529Z,101634.84
2022-12-03T23:13:48.338Z,101638.47
2022-12-03T23:16:20.726Z,101633.47
2022-12-03T23:18:47.366Z,101632.31
2022-12-03T23:21:21.610Z,101627.56
2022-12-03T23:23:51.870Z,101619.00
2022-12-03T23:26:18.741Z,101618.41
2022-12-03T23:28:46.335Z,101613.38
2022-12-03T23:31:25.480Z,101610.63
2022-12-03T23:33:52.924Z,101599.56
2022-12-03T23:36:20.104Z,101598.69
2022-12-03T23:38:47.549Z,101595.84
2022-12-03T23:41:16.846Z,101592.63
2022-12-03T23:43:43.715Z,101589.00
2022-12-03T23:46:12.940Z,101587.97
2022-12-03T23:48:39.833Z,101591.59
2022-12-03T23:51:11.096Z,101584.00
2022-12-03T23:53:40.965Z,101587.03
2022-12-03T23:56:13.562Z,101588.50
2022-12-03T23:58:40.243Z,101587.75
